Huvudsida
METAR-TAF:

METAR-TAF

Flygplatser :

Røros flygplats

Röros, Norge

latitud: 62-35N, longitud: 011-21E, höjd: 626 m

Aktuellt väderrapport

Denna rapport gjordes för 32 minuter sedan, klockan 14:20 UTC
Vind 11 kt från syd/sydost
Temperatur 14°C
Fuktighet 38%
Tryck 1020 hPa
Sikt 10 km eller mer
Inga moln under 1 500 m eller inga cumulonimbus

METAR: ENRO 231420Z 15011KT CAVOK 14/00 Q1020

Tid: 16:52 (14:52 UTC)

Väderprognos

Denna rapport gjordes för 3 timmar och 52 minuter sedan, klockan 11:00 UTC
Prognos gäller från 23 kl. 12 UTC till 23 kl. 18 UTC
Vind 10 kt från syd/sydost i byarna ända upp till 20 kt
Sikt 10 km eller mer
Inga moln under 1 500 m eller inga cumulonimbus

TAF: ENRO 231100Z 2312/2318 15010G20KT CAVOK

Aktuella väderrapporter och prognoser från 4000 flygplatser (METAR- och TAF-rapporter).

De tillgängliga stationerna syns som gula och röda prickar på kartan.

För musen över prickarna för att se namnen på stationerna.

Klicka sedan för att få väderrapporter och prognoser.

För att ändra kartan: Klicka på de gröna knapparna med ett svart kors på för att zooma in; den gröna knappen med ett streck på för att zooma ut; eller på de gröna pilarna för angränsande kartor.


METAR-TAF: